sensor_id;sensor_type;location;lat;lon;timestamp;temperature;humidity
6484;DHT22;3275;52.376;9.694;2023-07-09T05:06:29;21.50;82.60
6484;DHT22;3275;52.376;9.694;2023-07-09T05:08:56;21.50;82.40
6484;DHT22;3275;52.376;9.694;2023-07-09T05:11:23;21.40;82.40
6484;DHT22;3275;52.376;9.694;2023-07-09T05:13:49;21.60;82.70
6484;DHT22;3275;52.376;9.694;2023-07-09T05:16:16;21.60;83.00
6484;DHT22;3275;52.376;9.694;2023-07-09T05:18:44;21.60;82.80
6484;DHT22;3275;52.376;9.694;2023-07-09T05:21:11;21.60;83.00
6484;DHT22;3275;52.376;9.694;2023-07-09T05:23:39;21.60;83.30
6484;DHT22;3275;52.376;9.694;2023-07-09T05:26:05;21.70;83.30
6484;DHT22;3275;52.376;9.694;2023-07-09T05:28:32;21.70;83.10
6484;DHT22;3275;52.376;9.694;2023-07-09T05:30:59;21.70;83.20
6484;DHT22;3275;52.376;9.694;2023-07-09T05:33:26;21.80;83.50
6484;DHT22;3275;52.376;9.694;2023-07-09T05:35:52;21.80;83.10
6484;DHT22;3275;52.376;9.694;2023-07-09T05:38:19;21.70;82.70
6484;DHT22;3275;52.376;9.694;2023-07-09T05:40:47;21.70;83.00
6484;DHT22;3275;52.376;9.694;2023-07-09T05:43:14;21.70;83.00
6484;DHT22;3275;52.376;9.694;2023-07-09T05:45:41;21.70;83.30
6484;DHT22;3275;52.376;9.694;2023-07-09T05:48:07;21.80;83.50
6484;DHT22;3275;52.376;9.694;2023-07-09T05:50:34;21.80;83.20
6484;DHT22;3275;52.376;9.694;2023-07-09T05:53:01;21.80;83.50
6484;DHT22;3275;52.376;9.694;2023-07-09T05:55:27;21.80;83.20
6484;DHT22;3275;52.376;9.694;2023-07-09T05:57:55;21.80;83.20
6484;DHT22;3275;52.376;9.694;2023-07-09T06:00:22;21.90;83.40
6484;DHT22;3275;52.376;9.694;2023-07-09T06:02:49;21.90;83.40
6484;DHT22;3275;52.376;9.694;2023-07-09T06:05:15;22.00;83.20
6484;DHT22;3275;52.376;9.694;2023-07-09T06:07:42;22.00;82.60
6484;DHT22;3275;52.376;9.694;2023-07-09T06:10:09;22.10;82.30
6484;DHT22;3275;52.376;9.694;2023-07-09T06:12:36;22.10;82.20
6484;DHT22;3275;52.376;9.694;2023-07-09T06:15:05;22.10;82.00
6484;DHT22;3275;52.376;9.694;2023-07-09T06:17:32;22.20;82.20
6484;DHT22;3275;52.376;9.694;2023-07-09T06:19:59;22.30;82.20
6484;DHT22;3275;52.376;9.694;2023-07-09T06:22:26;22.30;82.40
6484;DHT22;3275;52.376;9.694;2023-07-09T06:24:54;22.40;81.90
6484;DHT22;3275;52.376;9.694;2023-07-09T06:27:20;22.40;82.00
6484;DHT22;3275;52.376;9.694;2023-07-09T06:29:47;22.50;81.70
6484;DHT22;3275;52.376;9.694;2023-07-09T06:32:15;22.50;82.50
6484;DHT22;3275;52.376;9.694;2023-07-09T06:34:41;22.50;82.80
6484;DHT22;3275;52.376;9.694;2023-07-09T06:37:08;22.50;83.10
6484;DHT22;3275;52.376;9.694;2023-07-09T06:39:35;22.60;83.20
6484;DHT22;3275;52.376;9.694;2023-07-09T06:42:02;22.60;83.20
6484;DHT22;3275;52.376;9.694;2023-07-09T06:44:29;22.80;83.40
6484;DHT22;3275;52.376;9.694;2023-07-09T06:46:55;22.80;83.20
6484;DHT22;3275;52.376;9.694;2023-07-09T06:49:23;22.90;83.30
6484;DHT22;3275;52.376;9.694;2023-07-09T06:51:50;22.90;83.20
6484;DHT22;3275;52.376;9.694;2023-07-09T06:54:17;23.00;83.20
6484;DHT22;3275;52.376;9.694;2023-07-09T06:56:43;23.00;83.00
6484;DHT22;3275;52.376;9.694;2023-07-09T06:59:10;23.00;83.20
6484;DHT22;3275;52.376;9.694;2023-07-09T07:01:36;23.10;83.10
6484;DHT22;3275;52.376;9.694;2023-07-09T07:04:03;23.10;83.20
6484;DHT22;3275;52.376;9.694;2023-07-09T07:06:31;23.20;83.10
6484;DHT22;3275;52.376;9.694;2023-07-09T07:08:58;23.10;82.80
6484;DHT22;3275;52.376;9.694;2023-07-09T07:11:24;23.20;82.90
6484;DHT22;3275;52.376;9.694;2023-07-09T07:13:55;23.30;82.80
6484;DHT22;3275;52.376;9.694;2023-07-09T07:16:22;23.30;83.20
6484;DHT22;3275;52.376;9.694;2023-07-09T07:18:50;23.40;83.30
6484;DHT22;3275;52.376;9.694;2023-07-09T07:21:16;23.50;83.30
6484;DHT22;3275;52.376;9.694;2023-07-09T07:23:44;23.60;83.30
6484;DHT22;3275;52.376;9.694;2023-07-09T07:26:11;23.60;83.30
6484;DHT22;3275;52.376;9.694;2023-07-09T07:28:38;23.70;83.10
6484;DHT22;3275;52.376;9.694;2023-07-09T07:31:06;23.70;82.90
6484;DHT22;3275;52.376;9.694;2023-07-09T07:33:34;23.80;83.20
6484;DHT22;3275;52.376;9.694;2023-07-09T07:36:04;23.80;82.80
6484;DHT22;3275;52.376;9.694;2023-07-09T07:38:30;23.90;82.90
6484;DHT22;3275;52.376;9.694;2023-07-09T07:41:00;24.10;83.20
6484;DHT22;3275;52.376;9.694;2023-07-09T07:43:26;24.00;83.00
6484;DHT22;3275;52.376;9.694;2023-07-09T07:45:53;24.00;83.00
6484;DHT22;3275;52.376;9.694;2023-07-09T07:48:20;24.10;83.00
6484;DHT22;3275;52.376;9.694;2023-07-09T07:50:46;24.10;82.80
6484;DHT22;3275;52.376;9.694;2023-07-09T07:53:13;24.20;83.20
6484;DHT22;3275;52.376;9.694;2023-07-09T07:55:40;24.30;82.90
6484;DHT22;3275;52.376;9.694;2023-07-09T07:58:11;24.40;82.70
6484;DHT22;3275;52.376;9.694;2023-07-09T08:00:39;24.40;82.60
6484;DHT22;3275;52.376;9.694;2023-07-09T08:03:06;24.50;82.00
6484;DHT22;3275;52.376;9.694;2023-07-09T08:05:32;24.50;81.90
6484;DHT22;3275;52.376;9.694;2023-07-09T08:07:59;24.60;81.70
6484;DHT22;3275;52.376;9.694;2023-07-09T08:10:25;24.70;82.00
6484;DHT22;3275;52.376;9.694;2023-07-09T08:12:52;24.70;80.80
6484;DHT22;3275;52.376;9.694;2023-07-09T08:15:23;24.70;81.10
6484;DHT22;3275;52.376;9.694;2023-07-09T08:17:49;24.80;82.20
6484;DHT22;3275;52.376;9.694;2023-07-09T08:20:16;24.90;82.60
6484;DHT22;3275;52.376;9.694;2023-07-09T08:22:43;24.90;82.50
6484;DHT22;3275;52.376;9.694;2023-07-09T08:25:11;25.00;81.80
6484;DHT22;3275;52.376;9.694;2023-07-09T08:27:38;25.10;81.90
6484;DHT22;3275;52.376;9.694;2023-07-09T08:30:06;25.10;81.80
6484;DHT22;3275;52.376;9.694;2023-07-09T08:32:34;25.20;81.70
6484;DHT22;3275;52.376;9.694;2023-07-09T08:35:00;25.20;81.20
6484;DHT22;3275;52.376;9.694;2023-07-09T08:37:27;25.30;80.30
6484;DHT22;3275;52.376;9.694;2023-07-09T08:39:54;25.40;80.60
6484;DHT22;3275;52.376;9.694;2023-07-09T08:42:25;25.40;80.90
6484;DHT22;3275;52.376;9.694;2023-07-09T08:45:03;25.60;80.80
6484;DHT22;3275;52.376;9.694;2023-07-09T08:47:40;25.60;80.60
6484;DHT22;3275;52.376;9.694;2023-07-09T08:50:12;25.60;80.20
6484;DHT22;3275;52.376;9.694;2023-07-09T08:52:41;25.70;80.30
6484;DHT22;3275;52.376;9.694;2023-07-09T08:55:12;25.70;80.10
6484;DHT22;3275;52.376;9.694;2023-07-09T08:57:43;25.80;80.10
6484;DHT22;3275;52.376;9.694;2023-07-09T09:00:15;25.80;80.50
6484;DHT22;3275;52.376;9.694;2023-07-09T09:02:49;25.90;80.10
6484;DHT22;3275;52.376;9.694;2023-07-09T09:05:19;26.10;79.60
6484;DHT22;3275;52.376;9.694;2023-07-09T09:07:50;26.10;80.40
6484;DHT22;3275;52.376;9.694;2023-07-09T09:10:23;25.90;79.60
6484;DHT22;3275;52.376;9.694;2023-07-09T09:13:02;26.20;78.90
6484;DHT22;3275;52.376;9.694;2023-07-09T09:15:31;26.20;79.40
6484;DHT22;3275;52.376;9.694;2023-07-09T09:18:13;26.30;80.00
6484;DHT22;3275;52.376;9.694;2023-07-09T09:20:41;26.30;80.10
6484;DHT22;3275;52.376;9.694;2023-07-09T09:23:13;26.40;80.40
6484;DHT22;3275;52.376;9.694;2023-07-09T09:25:42;26.40;80.20
6484;DHT22;3275;52.376;9.694;2023-07-09T09:28:10;26.50;79.60
6484;DHT22;3275;52.376;9.694;2023-07-09T09:30:37;26.50;79.60
6484;DHT22;3275;52.376;9.694;2023-07-09T09:33:07;26.50;80.00
6484;DHT22;3275;52.376;9.694;2023-07-09T09:35:35;26.60;79.80
6484;DHT22;3275;52.376;9.694;2023-07-09T09:38:03;26.60;80.00
6484;DHT22;3275;52.376;9.694;2023-07-09T09:40:35;26.70;80.20
6484;DHT22;3275;52.376;9.694;2023-07-09T09:43:08;26.80;80.20
6484;DHT22;3275;52.376;9.694;2023-07-09T09:45:38;26.90;80.20
6484;DHT22;3275;52.376;9.694;2023-07-09T09:48:14;26.90;80.40
6484;DHT22;3275;52.376;9.694;2023-07-09T09:50:41;27.00;79.90
6484;DHT22;3275;52.376;9.694;2023-07-09T09:53:08;27.00;79.40
6484;DHT22;3275;52.376;9.694;2023-07-09T09:55:38;27.00;79.20
6484;DHT22;3275;52.376;9.694;2023-07-09T09:58:12;27.10;78.10
6484;DHT22;3275;52.376;9.694;2023-07-09T10:00:40;27.10;77.60
6484;DHT22;3275;52.376;9.694;2023-07-09T10:03:07;27.20;78.00
6484;DHT22;3275;52.376;9.694;2023-07-09T10:05:40;27.20;77.80
6484;DHT22;3275;52.376;9.694;2023-07-09T10:08:17;27.30;78.50
6484;DHT22;3275;52.376;9.694;2023-07-09T10:10:46;27.40;77.30
6484;DHT22;3275;52.376;9.694;2023-07-09T10:13:18;27.40;77.60
6484;DHT22;3275;52.376;9.694;2023-07-09T10:16:00;27.30;78.10
6484;DHT22;3275;52.376;9.694;2023-07-09T10:18:45;27.50;77.40
6484;DHT22;3275;52.376;9.694;2023-07-09T10:21:23;27.50;76.80
6484;DHT22;3275;52.376;9.694;2023-07-09T10:24:07;27.50;77.00
6484;DHT22;3275;52.376;9.694;2023-07-09T10:26:40;27.50;76.80
6484;DHT22;3275;52.376;9.694;2023-07-09T10:29:29;27.50;76.40
6484;DHT22;3275;52.376;9.694;2023-07-09T10:32:07;27.60;76.90
6484;DHT22;3275;52.376;9.694;2023-07-09T10:34:43;27.60;77.30
6484;DHT22;3275;52.376;9.694;2023-07-09T10:37:40;27.70;77.50
6484;DHT22;3275;52.376;9.694;2023-07-09T10:40:13;27.70;78.20
6484;DHT22;3275;52.376;9.694;2023-07-09T10:42:44;27.70;78.00
6484;DHT22;3275;52.376;9.694;2023-07-09T10:45:13;27.80;79.60
6484;DHT22;3275;52.376;9.694;2023-07-09T10:47:43;27.90;76.60
6484;DHT22;3275;52.376;9.694;2023-07-09T10:50:30;27.90;75.30
6484;DHT22;3275;52.376;9.694;2023-07-09T10:53:04;28.00;73.90
6484;DHT22;3275;52.376;9.694;2023-07-09T10:55:39;28.10;72.50
6484;DHT22;3275;52.376;9.694;2023-07-09T10:58:21;28.30;70.00
6484;DHT22;3275;52.376;9.694;2023-07-09T11:00:49;28.40;70.30
6484;DHT22;3275;52.376;9.694;2023-07-09T11:03:19;28.50;71.20
6484;DHT22;3275;52.376;9.694;2023-07-09T11:05:48;28.50;71.30
6484;DHT22;3275;52.376;9.694;2023-07-09T11:08:18;28.70;70.20
6484;DHT22;3275;52.376;9.694;2023-07-09T11:10:51;28.70;70.10
6484;DHT22;3275;52.376;9.694;2023-07-09T11:13:24;28.90;69.70
6484;DHT22;3275;52.376;9.694;2023-07-09T11:15:54;29.00;69.00
6484;DHT22;3275;52.376;9.694;2023-07-09T11:18:22;29.00;69.80
6484;DHT22;3275;52.376;9.694;2023-07-09T11:20:59;29.10;69.00
6484;DHT22;3275;52.376;9.694;2023-07-09T11:23:37;29.20;69.40
6484;DHT22;3275;52.376;9.694;2023-07-09T11:26:11;29.50;68.50
6484;DHT22;3275;52.376;9.694;2023-07-09T11:28:40;29.80;69.10
6484;DHT22;3275;52.376;9.694;2023-07-09T11:31:14;30.10;68.80
6484;DHT22;3275;52.376;9.694;2023-07-09T11:33:46;30.70;68.80
6484;DHT22;3275;52.376;9.694;2023-07-09T11:36:24;31.60;66.30
6484;DHT22;3275;52.376;9.694;2023-07-09T11:38:52;32.50;62.90
6484;DHT22;3275;52.376;9.694;2023-07-09T11:41:26;33.10;64.20
6484;DHT22;3275;52.376;9.694;2023-07-09T11:44:03;33.70;62.40
6484;DHT22;3275;52.376;9.694;2023-07-09T11:46:30;34.30;61.30
6484;DHT22;3275;52.376;9.694;2023-07-09T11:48:58;35.00;60.80
6484;DHT22;3275;52.376;9.694;2023-07-09T11:51:34;35.50;60.20
6484;DHT22;3275;52.376;9.694;2023-07-09T11:54:03;35.80;60.10
6484;DHT22;3275;52.376;9.694;2023-07-09T11:56:30;36.60;59.30
6484;DHT22;3275;52.376;9.694;2023-07-09T11:58:57;37.10;58.10
6484;DHT22;3275;52.376;9.694;2023-07-09T12:01:26;37.30;57.00
6484;DHT22;3275;52.376;9.694;2023-07-09T12:03:56;37.20;56.80
6484;DHT22;3275;52.376;9.694;2023-07-09T12:06:26;36.90;56.90
6484;DHT22;3275;52.376;9.694;2023-07-09T12:08:55;37.60;56.90
6484;DHT22;3275;52.376;9.694;2023-07-09T12:11:24;38.50;56.50
6484;DHT22;3275;52.376;9.694;2023-07-09T12:13:52;38.30;55.40
6484;DHT22;3275;52.376;9.694;2023-07-09T12:16:25;37.80;54.90
6484;DHT22;3275;52.376;9.694;2023-07-09T12:18:52;37.70;55.70
6484;DHT22;3275;52.376;9.694;2023-07-09T12:21:19;37.90;55.20
6484;DHT22;3275;52.376;9.694;2023-07-09T12:23:46;37.80;56.00
6484;DHT22;3275;52.376;9.694;2023-07-09T12:26:16;38.60;55.70
6484;DHT22;3275;52.376;9.694;2023-07-09T12:28:48;38.60;55.40
6484;DHT22;3275;52.376;9.694;2023-07-09T12:31:16;39.60;54.70
6484;DHT22;3275;52.376;9.694;2023-07-09T12:33:47;40.00;52.90
6484;DHT22;3275;52.376;9.694;2023-07-09T12:36:16;40.10;52.80
6484;DHT22;3275;52.376;9.694;2023-07-09T12:38:46;39.90;53.00
6484;DHT22;3275;52.376;9.694;2023-07-09T12:41:19;40.20;53.70
6484;DHT22;3275;52.376;9.694;2023-07-09T12:43:46;40.60;52.40
6484;DHT22;3275;52.376;9.694;2023-07-09T12:46:14;41.10;51.20
6484;DHT22;3275;52.376;9.694;2023-07-09T12:48:40;41.10;50.40
6484;DHT22;3275;52.376;9.694;2023-07-09T12:51:08;40.10;50.10
6484;DHT22;3275;52.376;9.694;2023-07-09T12:53:36;39.90;52.40
6484;DHT22;3275;52.376;9.694;2023-07-09T12:56:03;40.00;51.20
6484;DHT22;3275;52.376;9.694;2023-07-09T12:58:38;40.20;51.80
6484;DHT22;3275;52.376;9.694;2023-07-09T13:01:08;40.80;51.30
6484;DHT22;3275;52.376;9.694;2023-07-09T13:03:38;40.70;49.80
6484;DHT22;3275;52.376;9.694;2023-07-09T13:06:06;40.50;50.80
6484;DHT22;3275;52.376;9.694;2023-07-09T13:08:43;40.60;50.20
6484;DHT22;3275;52.376;9.694;2023-07-09T13:11:14;41.00;49.90
6484;DHT22;3275;52.376;9.694;2023-07-09T13:13:54;40.90;50.20
6484;DHT22;3275;52.376;9.694;2023-07-09T13:16:21;41.10;50.20
6484;DHT22;3275;52.376;9.694;2023-07-09T13:18:48;41.10;49.60
6484;DHT22;3275;52.376;9.694;2023-07-09T13:21:17;41.00;50.50
6484;DHT22;3275;52.376;9.694;2023-07-09T13:23:44;40.60;48.80
6484;DHT22;3275;52.376;9.694;2023-07-09T13:26:12;40.20;49.20
6484;DHT22;3275;52.376;9.694;2023-07-09T13:28:39;39.80;49.80
6484;DHT22;3275;52.376;9.694;2023-07-09T13:31:12;39.80;50.60
6484;DHT22;3275;52.376;9.694;2023-07-09T13:33:40;38.80;49.80
6484;DHT22;3275;52.376;9.694;2023-07-09T13:36:07;37.90;51.10
6484;DHT22;3275;52.376;9.694;2023-07-09T13:38:34;36.90;52.20
6484;DHT22;3275;52.376;9.694;2023-07-09T13:41:10;36.20;53.30
6484;DHT22;3275;52.376;9.694;2023-07-09T13:43:39;35.90;54.90
6484;DHT22;3275;52.376;9.694;2023-07-09T13:46:09;35.50;54.90
6484;DHT22;3275;52.376;9.694;2023-07-09T13:48:38;35.20;54.80
6484;DHT22;3275;52.376;9.694;2023-07-09T13:51:13;35.10;55.00
6484;DHT22;3275;52.376;9.694;2023-07-09T13:53:40;34.80;55.70
6484;DHT22;3275;52.376;9.694;2023-07-09T13:56:07;34.70;55.60
6484;DHT22;3275;52.376;9.694;2023-07-09T13:58:33;34.60;56.30
6484;DHT22;3275;52.376;9.694;2023-07-09T14:01:10;34.50;56.00
6484;DHT22;3275;52.376;9.694;2023-07-09T14:03:37;34.20;55.90
6484;DHT22;3275;52.376;9.694;2023-07-09T14:06:04;34.10;57.70
6484;DHT22;3275;52.376;9.694;2023-07-09T14:08:31;34.00;57.90
6484;DHT22;3275;52.376;9.694;2023-07-09T14:10:57;33.90;57.40
6484;DHT22;3275;52.376;9.694;2023-07-09T14:13:24;33.80;57.70
6484;DHT22;3275;52.376;9.694;2023-07-09T14:15:51;33.70;58.30
6484;DHT22;3275;52.376;9.694;2023-07-09T14:18:21;33.50;57.70
6484;DHT22;3275;52.376;9.694;2023-07-09T14:20:49;33.30;58.30
6484;DHT22;3275;52.376;9.694;2023-07-09T14:23:17;33.20;58.40
6484;DHT22;3275;52.376;9.694;2023-07-09T14:25:44;33.20;58.50
6484;DHT22;3275;52.376;9.694;2023-07-09T14:28:13;33.20;58.30
6484;DHT22;3275;52.376;9.694;2023-07-09T14:30:40;33.20;59.40
6484;DHT22;3275;52.376;9.694;2023-07-09T14:33:11;33.20;58.50
6484;DHT22;3275;52.376;9.694;2023-07-09T14:35:39;33.10;58.30
6484;DHT22;3275;52.376;9.694;2023-07-09T14:38:15;33.00;58.80
6484;DHT22;3275;52.376;9.694;2023-07-09T14:40:42;32.90;59.20
6484;DHT22;3275;52.376;9.694;2023-07-09T14:43:10;32.90;59.70
6484;DHT22;3275;52.376;9.694;2023-07-09T14:45:37;32.80;60.60
6484;DHT22;3275;52.376;9.694;2023-07-09T14:48:09;32.80;59.50
6484;DHT22;3275;52.376;9.694;2023-07-09T14:50:36;32.80;60.90
6484;DHT22;3275;52.376;9.694;2023-07-09T14:53:09;32.80;59.10
6484;DHT22;3275;52.376;9.694;2023-07-09T14:55:37;32.90;60.00
6484;DHT22;3275;52.376;9.694;2023-07-09T14:58:12;32.80;59.60
6484;DHT22;3275;52.376;9.694;2023-07-09T15:00:40;32.80;59.10
6484;DHT22;3275;52.376;9.694;2023-07-09T15:03:10;32.80;59.60
6484;DHT22;3275;52.376;9.694;2023-07-09T15:05:37;32.80;60.00
6484;DHT22;3275;52.376;9.694;2023-07-09T15:08:11;32.70;60.10
6484;DHT22;3275;52.376;9.694;2023-07-09T15:10:38;32.70;60.40
6484;DHT22;3275;52.376;9.694;2023-07-09T15:13:05;32.60;59.70
6484;DHT22;3275;52.376;9.694;2023-07-09T15:15:33;32.60;60.10
6484;DHT22;3275;52.376;9.694;2023-07-09T15:18:12;32.50;59.90
6484;DHT22;3275;52.376;9.694;2023-07-09T15:20:43;32.50;59.50
6484;DHT22;3275;52.376;9.694;2023-07-09T15:23:13;32.50;59.70
6484;DHT22;3275;52.376;9.694;2023-07-09T15:25:40;32.40;60.30
6484;DHT22;3275;52.376;9.694;2023-07-09T15:28:09;32.50;61.00
6484;DHT22;3275;52.376;9.694;2023-07-09T15:30:36;32.30;62.10
6484;DHT22;3275;52.376;9.694;2023-07-09T15:33:04;32.30;60.40
6484;DHT22;3275;52.376;9.694;2023-07-09T15:35:32;32.20;61.10
6484;DHT22;3275;52.376;9.694;2023-07-09T15:38:00;32.20;61.60
6484;DHT22;3275;52.376;9.694;2023-07-09T15:40:28;32.10;61.80
6484;DHT22;3275;52.376;9.694;2023-07-09T15:42:58;32.10;60.90
6484;DHT22;3275;52.376;9.694;2023-07-09T15:45:27;32.10;61.10
6484;DHT22;3275;52.376;9.694;2023-07-09T15:47:53;32.20;61.90
6484;DHT22;3275;52.376;9.694;2023-07-09T15:50:21;32.10;61.70
6484;DHT22;3275;52.376;9.694;2023-07-09T15:52:48;32.00;61.70
6484;DHT22;3275;52.376;9.694;2023-07-09T15:55:17;32.10;62.60
6484;DHT22;3275;52.376;9.694;2023-07-09T15:57:47;32.10;62.70
6484;DHT22;3275;52.376;9.694;2023-07-09T16:00:16;32.10;62.60
6484;DHT22;3275;52.376;9.694;2023-07-09T16:02:44;32.10;63.00
6484;DHT22;3275;52.376;9.694;2023-07-09T16:05:17;32.00;63.50
6484;DHT22;3275;52.376;9.694;2023-07-09T16:07:44;32.00;64.00
6484;DHT22;3275;52.376;9.694;2023-07-09T16:10:11;31.90;63.70
6484;DHT22;3275;52.376;9.694;2023-07-09T16:12:38;31.80;63.60
6484;DHT22;3275;52.376;9.694;2023-07-09T16:15:10;31.70;63.60
6484;DHT22;3275;52.376;9.694;2023-07-09T16:17:37;31.70;63.80
6484;DHT22;3275;52.376;9.694;2023-07-09T16:20:05;31.60;63.90
6484;DHT22;3275;52.376;9.694;2023-07-09T16:22:31;31.60;63.80
6484;DHT22;3275;52.376;9.694;2023-07-09T16:25:14;31.60;64.50
6484;DHT22;3275;52.376;9.694;2023-07-09T16:27:42;31.50;64.20
6484;DHT22;3275;52.376;9.694;2023-07-09T16:30:14;31.50;64.60
6484;DHT22;3275;52.376;9.694;2023-07-09T16:32:41;31.50;64.20
6484;DHT22;3275;52.376;9.694;2023-07-09T16:35:11;31.50;64.50
6484;DHT22;3275;52.376;9.694;2023-07-09T16:37:38;31.40;64.40
6484;DHT22;3275;52.376;9.694;2023-07-09T16:40:08;31.40;64.80
6484;DHT22;3275;52.376;9.694;2023-07-09T16:42:37;31.30;65.00
6484;DHT22;3275;52.376;9.694;2023-07-09T16:45:04;31.30;65.10
6484;DHT22;3275;52.376;9.694;2023-07-09T16:47:33;31.20;65.30
6484;DHT22;3275;52.376;9.694;2023-07-09T16:50:00;31.20;65.60
6484;DHT22;3275;52.376;9.694;2023-07-09T16:52:26;31.20;65.60
6484;DHT22;3275;52.376;9.694;2023-07-09T16:54:53;31.20;66.50
6484;DHT22;3275;52.376;9.694;2023-07-09T16:57:22;31.10;66.10
6484;DHT22;3275;52.376;9.694;2023-07-09T16:59:51;31.00;66.00
6484;DHT22;3275;52.376;9.694;2023-07-09T17:02:25;31.00;66.40
6484;DHT22;3275;52.376;9.694;2023-07-09T17:04:54;31.00;66.60
6484;DHT22;3275;52.376;9.694;2023-07-09T17:07:21;30.90;66.50
6484;DHT22;3275;52.376;9.694;2023-07-09T17:09:48;30.90;66.70
6484;DHT22;3275;52.376;9.694;2023-07-09T17:12:15;30.80;66.60
6484;DHT22;3275;52.376;9.694;2023-07-09T17:14:43;30.90;66.50
6484;DHT22;3275;52.376;9.694;2023-07-09T17:17:12;30.80;66.70
6484;DHT22;3275;52.376;9.694;2023-07-09T17:19:39;30.80;66.50
6484;DHT22;3275;52.376;9.694;2023-07-09T17:22:16;30.80;66.50
6484;DHT22;3275;52.376;9.694;2023-07-09T17:24:44;30.80;66.60
6484;DHT22;3275;52.376;9.694;2023-07-09T17:27:10;30.70;66.70
6484;DHT22;3275;52.376;9.694;2023-07-09T17:29:37;30.70;66.90
6484;DHT22;3275;52.376;9.694;2023-07-09T17:32:05;30.70;67.10
6484;DHT22;3275;52.376;9.694;2023-07-09T17:34:32;30.70;67.20
6484;DHT22;3275;52.376;9.694;2023-07-09T17:36:59;30.60;67.50
6484;DHT22;3275;52.376;9.694;2023-07-09T17:39:27;30.60;67.80
6484;DHT22;3275;52.376;9.694;2023-07-09T17:41:54;30.60;67.80
6484;DHT22;3275;52.376;9.694;2023-07-09T17:44:22;30.50;67.70
6484;DHT22;3275;52.376;9.694;2023-07-09T17:46:51;30.50;67.50
6484;DHT22;3275;52.376;9.694;2023-07-09T17:49:22;30.40;67.60
6484;DHT22;3275;52.376;9.694;2023-07-09T17:51:49;30.40;67.80
6484;DHT22;3275;52.376;9.694;2023-07-09T17:54:18;30.40;68.00
6484;DHT22;3275;52.376;9.694;2023-07-09T17:56:47;30.30;68.30
6484;DHT22;3275;52.376;9.694;2023-07-09T17:59:16;30.30;68.30
6484;DHT22;3275;52.376;9.694;2023-07-09T18:01:44;30.20;68.50
6484;DHT22;3275;52.376;9.694;2023-07-09T18:04:16;30.20;68.80
6484;DHT22;3275;52.376;9.694;2023-07-09T18:06:47;30.20;68.80
6484;DHT22;3275;52.376;9.694;2023-07-09T18:09:15;30.20;69.00
6484;DHT22;3275;52.376;9.694;2023-07-09T18:11:43;30.10;69.30
6484;DHT22;3275;52.376;9.694;2023-07-09T18:14:18;30.10;69.40
6484;DHT22;3275;52.376;9.694;2023-07-09T18:16:45;30.10;69.50
6484;DHT22;3275;52.376;9.694;2023-07-09T18:19:21;30.00;69.30
6484;DHT22;3275;52.376;9.694;2023-07-09T18:21:49;30.00;69.40
6484;DHT22;3275;52.376;9.694;2023-07-09T18:24:16;29.90;69.50
6484;DHT22;3275;52.376;9.694;2023-07-09T18:26:42;29.90;69.70
6484;DHT22;3275;52.376;9.694;2023-07-09T18:29:23;29.90;69.80
6484;DHT22;3275;52.376;9.694;2023-07-09T18:31:51;29.90;70.10
6484;DHT22;3275;52.376;9.694;2023-07-09T18:34:17;29.80;70.20
6484;DHT22;3275;52.376;9.694;2023-07-09T18:36:44;29.80;70.40
6484;DHT22;3275;52.376;9.694;2023-07-09T18:39:11;29.70;70.50
6484;DHT22;3275;52.376;9.694;2023-07-09T18:41:37;29.60;70.50
6484;DHT22;3275;52.376;9.694;2023-07-09T18:44:15;29.60;70.60
6484;DHT22;3275;52.376;9.694;2023-07-09T18:46:44;29.50;70.90
6484;DHT22;3275;52.376;9.694;2023-07-09T18:49:11;29.50;71.20
6484;DHT22;3275;52.376;9.694;2023-07-09T18:51:37;29.50;71.10
6484;DHT22;3275;52.376;9.694;2023-07-09T18:54:10;29.50;71.40
6484;DHT22;3275;52.376;9.694;2023-07-09T18:56:37;29.40;74.60
6484;DHT22;3275;52.376;9.694;2023-07-09T18:59:10;29.20;77.10
6484;DHT22;3275;52.376;9.694;2023-07-09T19:01:38;28.90;78.80
6484;DHT22;3275;52.376;9.694;2023-07-09T19:04:12;28.60;79.00
6484;DHT22;3275;52.376;9.694;2023-07-09T19:06:39;28.30;80.10
6484;DHT22;3275;52.376;9.694;2023-07-09T19:09:14;27.80;80.90
6484;DHT22;3275;52.376;9.694;2023-07-09T19:11:41;27.60;81.70
6484;DHT22;3275;52.376;9.694;2023-07-09T19:14:07;27.50;82.00
6484;DHT22;3275;52.376;9.694;2023-07-09T19:16:34;27.30;83.00
6484;DHT22;3275;52.376;9.694;2023-07-09T19:19:01;26.90;85.40
6484;DHT22;3275;52.376;9.694;2023-07-09T19:21:30;26.70;86.90
6484;DHT22;3275;52.376;9.694;2023-07-09T19:23:57;26.50;88.50
6484;DHT22;3275;52.376;9.694;2023-07-09T19:26:24;26.20;89.80
6484;DHT22;3275;52.376;9.694;2023-07-09T19:28:51;26.00;90.70
6484;DHT22;3275;52.376;9.694;2023-07-09T19:31:18;25.80;91.20
6484;DHT22;3275;52.376;9.694;2023-07-09T19:33:44;25.70;91.90
6484;DHT22;3275;52.376;9.694;2023-07-09T19:36:20;25.50;92.60
6484;DHT22;3275;52.376;9.694;2023-07-09T19:38:49;25.40;93.10
6484;DHT22;3275;52.376;9.694;2023-07-09T19:41:16;25.30;93.50
6484;DHT22;3275;52.376;9.694;2023-07-09T19:43:43;25.30;94.10
6484;DHT22;3275;52.376;9.694;2023-07-09T19:46:17;25.20;94.10
6484;DHT22;3275;52.376;9.694;2023-07-09T19:48:45;25.10;94.50
6484;DHT22;3275;52.376;9.694;2023-07-09T19:51:11;25.00;95.00
6484;DHT22;3275;52.376;9.694;2023-07-09T19:53:39;24.80;95.40
6484;DHT22;3275;52.376;9.694;2023-07-09T19:56:07;24.70;95.60
6484;DHT22;3275;52.376;9.694;2023-07-09T19:58:34;24.70;96.30
6484;DHT22;3275;52.376;9.694;2023-07-09T20:01:00;24.50;96.90
6484;DHT22;3275;52.376;9.694;2023-07-09T20:03:29;24.30;97.30
6484;DHT22;3275;52.376;9.694;2023-07-09T20:05:56;24.30;98.10
6484;DHT22;3275;52.376;9.694;2023-07-09T20:08:23;24.20;98.20
6484;DHT22;3275;52.376;9.694;2023-07-09T20:10:52;24.10;98.50
6484;DHT22;3275;52.376;9.694;2023-07-09T20:13:23;24.10;98.80
6484;DHT22;3275;52.376;9.694;2023-07-09T20:15:50;24.10;98.80
6484;DHT22;3275;52.376;9.694;2023-07-09T20:18:18;24.00;99.00
6484;DHT22;3275;52.376;9.694;2023-07-09T20:20:48;24.00;99.40
6484;DHT22;3275;52.376;9.694;2023-07-09T20:23:16;24.00;99.90
6484;DHT22;3275;52.376;9.694;2023-07-09T20:25:42;24.00;99.60
6484;DHT22;3275;52.376;9.694;2023-07-09T20:28:24;24.00;99.70
6484;DHT22;3275;52.376;9.694;2023-07-09T20:30:53;23.80;99.90
6484;DHT22;3275;52.376;9.694;2023-07-09T20:33:21;23.90;99.90
6484;DHT22;3275;52.376;9.694;2023-07-09T20:35:48;23.80;99.90
6484;DHT22;3275;52.376;9.694;2023-07-09T20:38:17;23.80;99.90
6484;DHT22;3275;52.376;9.694;2023-07-09T20:40:44;23.90;99.90
6484;DHT22;3275;52.376;9.694;2023-07-09T20:43:18;23.80;99.90
6484;DHT22;3275;52.376;9.694;2023-07-09T20:45:45;23.70;99.90
6484;DHT22;3275;52.376;9.694;2023-07-09T20:48:13;23.70;99.90
6484;DHT22;3275;52.376;9.694;2023-07-09T20:50:40;23.80;99.90
6484;DHT22;3275;52.376;9.694;2023-07-09T20:53:09;23.70;99.90
6484;DHT22;3275;52.376;9.694;2023-07-09T20:55:35;23.70;99.90
6484;DHT22;3275;52.376;9.694;2023-07-09T20:58:02;23.70;99.90
6484;DHT22;3275;52.376;9.694;2023-07-09T21:00:29;23.70;99.90
6484;DHT22;3275;52.376;9.694;2023-07-09T21:02:55;23.50;99.90
6484;DHT22;3275;52.376;9.694;2023-07-09T21:05:23;23.50;99.90
6484;DHT22;3275;52.376;9.694;2023-07-09T21:07:51;23.60;99.90
6484;DHT22;3275;52.376;9.694;2023-07-09T21:10:19;23.70;99.90
6484;DHT22;3275;52.376;9.694;2023-07-09T21:12:46;23.70;99.90
6484;DHT22;3275;52.376;9.694;2023-07-09T21:15:13;23.70;99.90
6484;DHT22;3275;52.376;9.694;2023-07-09T21:17:41;23.80;99.90
6484;DHT22;3275;52.376;9.694;2023-07-09T21:20:14;23.80;99.90